createdAt,value
2023-12-04T00:01:49.354Z,1.87
2023-12-04T00:04:15.924Z,1.88
2023-12-04T00:06:42.502Z,1.88
2023-12-04T00:09:08.943Z,1.88
2023-12-04T00:11:35.450Z,1.88
2023-12-04T00:14:01.902Z,1.89
2023-12-04T00:16:28.318Z,1.88
2023-12-04T00:18:54.893Z,1.90
2023-12-04T00:21:21.377Z,1.89
2023-12-04T00:23:47.816Z,1.89
2023-12-04T00:26:14.254Z,1.89
2023-12-04T00:28:40.686Z,1.89
2023-12-04T00:31:07.140Z,1.89
2023-12-04T00:33:33.751Z,2.00
2023-12-04T00:36:01.148Z,1.91
2023-12-04T00:38:27.574Z,1.91
2023-12-04T00:40:54.013Z,1.91
2023-12-04T00:43:20.433Z,1.91
2023-12-04T00:45:46.873Z,1.73
2023-12-04T00:48:13.400Z,1.92
2023-12-04T00:50:39.908Z,1.92
2023-12-04T00:53:06.340Z,1.92
2023-12-04T00:55:32.812Z,1.92
2023-12-04T00:57:59.283Z,1.94
2023-12-04T01:00:25.746Z,1.93
2023-12-04T01:02:52.190Z,1.93
2023-12-04T01:05:18.661Z,1.94
2023-12-04T01:07:45.090Z,1.94
2023-12-04T01:10:11.515Z,1.94
2023-12-04T01:12:37.989Z,1.94
2023-12-04T01:15:04.420Z,1.94
2023-12-04T01:17:30.887Z,1.95
2023-12-04T01:19:57.308Z,1.94
2023-12-04T01:22:23.689Z,1.94
2023-12-04T01:24:50.179Z,1.96
2023-12-04T01:27:16.696Z,1.96
2023-12-04T01:29:43.116Z,1.95
2023-12-04T01:32:09.570Z,1.96
2023-12-04T01:34:35.982Z,1.96
2023-12-04T01:37:02.399Z,1.96
2023-12-04T01:39:28.877Z,1.97
2023-12-04T01:41:55.293Z,1.96
2023-12-04T01:44:21.718Z,1.96
2023-12-04T01:46:48.175Z,1.95
2023-12-04T01:49:14.684Z,1.98
2023-12-04T01:51:41.167Z,1.97
2023-12-04T01:54:07.619Z,1.98
2023-12-04T01:56:34.045Z,1.98
2023-12-04T01:59:00.637Z,1.97
2023-12-04T02:01:27.101Z,1.98
2023-12-04T02:03:53.592Z,1.98
2023-12-04T02:06:20.075Z,1.98
2023-12-04T02:08:46.537Z,1.99
2023-12-04T02:11:13.044Z,2.00
2023-12-04T02:13:39.472Z,1.99
2023-12-04T02:16:05.931Z,1.99
2023-12-04T02:18:32.421Z,2.09
2023-12-04T02:20:58.961Z,2.12
2023-12-04T02:23:25.394Z,2.08
2023-12-04T02:25:51.824Z,2.02
2023-12-04T02:28:18.339Z,2.02
2023-12-04T02:30:44.822Z,2.01
2023-12-04T02:33:11.432Z,2.01
2023-12-04T02:35:37.968Z,2.00
2023-12-04T02:38:04.400Z,2.02
2023-12-04T02:40:30.828Z,2.01
2023-12-04T02:42:57.326Z,2.05
2023-12-04T02:45:23.748Z,2.03
2023-12-04T02:47:50.272Z,2.03
2023-12-04T02:50:16.747Z,2.10
2023-12-04T02:52:43.161Z,2.07
2023-12-04T02:55:09.666Z,2.07
2023-12-04T02:57:36.185Z,2.08
2023-12-04T03:00:02.671Z,2.09
2023-12-04T03:02:29.139Z,2.09
2023-12-04T03:04:55.565Z,2.13
2023-12-04T03:07:21.976Z,2.28
2023-12-04T03:09:49.830Z,2.65
2023-12-04T03:12:16.511Z,3.01
2023-12-04T03:14:42.950Z,3.43
2023-12-04T03:17:09.403Z,3.82
2023-12-04T03:19:35.912Z,4.20
2023-12-04T03:22:02.607Z,4.55
2023-12-04T03:24:29.146Z,4.87
2023-12-04T03:26:55.642Z,5.18
2023-12-04T03:29:22.076Z,5.50
2023-12-04T03:31:48.508Z,5.81
2023-12-04T03:34:15.030Z,6.12
2023-12-04T03:36:41.486Z,6.41
2023-12-04T03:39:07.927Z,6.70
2023-12-04T03:41:34.368Z,6.97
2023-12-04T03:44:00.787Z,7.26
2023-12-04T03:46:27.198Z,7.53
2023-12-04T03:48:53.740Z,7.81
2023-12-04T03:51:20.212Z,8.10
2023-12-04T03:53:46.660Z,8.47
2023-12-04T03:56:13.088Z,8.74
2023-12-04T03:58:39.497Z,8.86
2023-12-04T04:01:05.974Z,9.10
2023-12-04T04:03:32.498Z,9.36
2023-12-04T04:05:58.925Z,9.57
2023-12-04T04:08:25.403Z,9.80
2023-12-04T04:10:51.823Z,10.03
2023-12-04T04:13:18.306Z,10.27
2023-12-04T04:15:44.785Z,10.48
2023-12-04T04:18:11.277Z,10.70
2023-12-04T04:20:37.762Z,10.92
2023-12-04T04:23:04.211Z,11.13
2023-12-04T04:25:30.637Z,11.35
2023-12-04T04:27:57.112Z,11.55
2023-12-04T04:30:23.566Z,11.76
2023-12-04T04:32:50.022Z,11.98
2023-12-04T04:35:16.468Z,12.28
2023-12-04T04:37:45.380Z,12.49
2023-12-04T04:40:12.482Z,12.68
2023-12-04T04:42:38.957Z,12.88
2023-12-04T04:45:05.400Z,13.07
2023-12-04T04:47:31.856Z,13.25
2023-12-04T04:49:58.334Z,13.42
2023-12-04T04:52:24.799Z,13.59
2023-12-04T04:54:51.253Z,13.75
2023-12-04T04:57:17.659Z,13.91
2023-12-04T04:59:44.110Z,14.07
2023-12-04T05:02:10.581Z,14.23
2023-12-04T05:04:37.109Z,14.39
2023-12-04T05:07:03.650Z,14.54
2023-12-04T05:09:30.063Z,14.71
2023-12-04T05:11:57.966Z,14.84
2023-12-04T05:14:24.406Z,14.52
2023-12-04T05:16:50.830Z,14.43
2023-12-04T05:19:17.338Z,14.38
2023-12-04T05:21:43.861Z,14.50
2023-12-04T05:24:10.360Z,14.67
2023-12-04T05:26:36.774Z,14.90
2023-12-04T05:29:03.275Z,15.14
2023-12-04T05:31:29.737Z,15.37
2023-12-04T05:33:56.289Z,15.59
2023-12-04T05:36:22.833Z,15.80
2023-12-04T05:38:49.277Z,16.01
2023-12-04T05:41:15.696Z,16.20
2023-12-04T05:43:42.158Z,16.38
2023-12-04T05:46:08.607Z,16.56
2023-12-04T05:48:35.051Z,16.73
2023-12-04T05:51:01.541Z,16.90
2023-12-04T05:53:27.949Z,17.05
2023-12-04T05:55:54.363Z,17.22
2023-12-04T05:58:20.881Z,17.37
2023-12-04T06:00:47.385Z,17.50
2023-12-04T06:03:13.845Z,17.65
2023-12-04T06:05:40.379Z,17.78
2023-12-04T06:08:06.820Z,17.91
2023-12-04T06:10:33.238Z,18.05
2023-12-04T06:12:59.766Z,18.18
2023-12-04T06:15:26.225Z,18.32
2023-12-04T06:17:52.695Z,18.45
2023-12-04T06:20:19.164Z,18.57
2023-12-04T06:22:45.603Z,18.69
2023-12-04T06:25:12.060Z,18.81
2023-12-04T06:27:38.598Z,18.92
2023-12-04T06:30:05.032Z,19.02
2023-12-04T06:32:31.512Z,19.14
2023-12-04T06:34:57.998Z,19.25
2023-12-04T06:37:24.406Z,19.34
2023-12-04T06:39:50.840Z,19.45
2023-12-04T06:42:18.588Z,19.53
2023-12-04T06:44:45.010Z,19.64
2023-12-04T06:47:11.486Z,19.74
2023-12-04T06:49:37.945Z,19.68
2023-12-04T06:52:04.460Z,19.93
2023-12-04T06:54:30.943Z,20.01
2023-12-04T06:56:57.386Z,20.11
2023-12-04T06:59:23.818Z,20.19
2023-12-04T07:01:50.298Z,20.28
2023-12-04T07:04:16.813Z,20.35
2023-12-04T07:06:43.261Z,20.45
2023-12-04T07:09:09.723Z,20.53
2023-12-04T07:11:36.171Z,20.61
2023-12-04T07:14:02.616Z,20.70
2023-12-04T07:16:29.065Z,20.79
2023-12-04T07:18:55.557Z,20.88
2023-12-04T07:21:22.005Z,20.97
2023-12-04T07:23:48.444Z,21.07
2023-12-04T07:26:14.981Z,21.17
2023-12-04T07:28:41.401Z,21.26
2023-12-04T07:31:07.867Z,21.36
2023-12-04T07:33:34.531Z,21.47
2023-12-04T07:36:01.043Z,21.57
2023-12-04T07:38:29.335Z,21.68
2023-12-04T07:40:55.897Z,21.79
2023-12-04T07:43:22.401Z,21.88
2023-12-04T07:45:48.975Z,22.00
2023-12-04T07:48:15.508Z,22.11
2023-12-04T07:50:41.968Z,22.21
2023-12-04T07:53:08.414Z,22.32
2023-12-04T07:55:34.826Z,22.39
2023-12-04T07:58:01.296Z,22.46
2023-12-04T08:00:27.759Z,22.54
2023-12-04T08:02:54.154Z,22.59
2023-12-04T08:05:20.594Z,22.64
2023-12-04T08:07:47.003Z,22.74
2023-12-04T08:10:13.517Z,22.77
2023-12-04T08:12:40.062Z,22.76
2023-12-04T08:15:06.544Z,22.78
2023-12-04T08:17:32.995Z,22.82
2023-12-04T08:19:59.756Z,22.89
2023-12-04T08:22:26.312Z,22.97
2023-12-04T08:24:52.830Z,23.05
2023-12-04T08:27:19.318Z,23.15
2023-12-04T08:29:45.723Z,23.26
2023-12-04T08:32:12.208Z,23.37
2023-12-04T08:34:38.647Z,23.50
2023-12-04T08:37:05.213Z,23.62
2023-12-04T08:39:31.685Z,23.75
2023-12-04T08:42:01.924Z,23.78
2023-12-04T08:44:31.601Z,23.59
2023-12-04T08:46:58.398Z,23.57
2023-12-04T08:49:27.693Z,23.62
2023-12-04T08:51:59.145Z,23.70
2023-12-04T08:54:25.604Z,23.78
2023-12-04T08:56:52.509Z,23.88
2023-12-04T08:59:18.972Z,23.98
2023-12-04T09:01:45.719Z,23.96
2023-12-04T09:04:12.331Z,23.84
2023-12-04T09:09:11.208Z,23.95
2023-12-04T09:11:39.987Z,24.04
2023-12-04T09:14:06.448Z,24.14
2023-12-04T09:16:32.897Z,24.22
2023-12-04T09:18:59.419Z,24.29
2023-12-04T09:21:25.871Z,24.38
2023-12-04T09:23:52.518Z,24.46
2023-12-04T09:26:18.974Z,24.12
2023-12-04T09:28:45.388Z,23.10
2023-12-04T09:31:11.894Z,22.38
2023-12-04T09:33:38.399Z,22.51
2023-12-04T09:36:05.029Z,22.88
2023-12-04T09:38:31.508Z,23.25
2023-12-04T09:40:58.497Z,23.51
2023-12-04T09:43:25.629Z,23.76
2023-12-04T09:45:52.848Z,24.01
2023-12-04T09:48:19.475Z,24.28
2023-12-04T09:50:46.125Z,24.56
2023-12-04T09:53:12.617Z,24.83
2023-12-04T09:55:39.035Z,25.07
2023-12-04T09:58:05.498Z,25.29
2023-12-04T10:00:31.925Z,25.51
2023-12-04T10:02:58.577Z,25.08
2023-12-04T10:05:25.117Z,23.97
2023-12-04T10:07:51.590Z,23.87
2023-12-04T10:10:18.001Z,24.05
2023-12-04T10:12:44.651Z,24.30
2023-12-04T10:15:11.365Z,24.56
2023-12-04T10:17:37.941Z,24.81
2023-12-04T10:20:04.418Z,25.04
2023-12-04T10:22:30.982Z,25.25
2023-12-04T10:24:57.398Z,25.43
2023-12-04T10:27:23.875Z,25.61
2023-12-04T10:29:50.347Z,25.79
2023-12-04T10:32:16.811Z,25.96
2023-12-04T10:34:43.294Z,26.10
2023-12-04T10:37:09.696Z,26.24
2023-12-04T10:39:36.198Z,26.39
2023-12-04T10:42:02.822Z,26.51
2023-12-04T10:44:29.315Z,26.66
2023-12-04T10:46:55.775Z,26.78
2023-12-04T10:49:22.451Z,26.88
2023-12-04T10:51:48.987Z,26.98
2023-12-04T10:54:15.538Z,27.09
2023-12-04T10:56:42.056Z,27.16
2023-12-04T10:59:08.452Z,27.23
2023-12-04T11:01:34.974Z,27.34
2023-12-04T11:04:02.317Z,27.48
2023-12-04T11:06:28.784Z,27.62
2023-12-04T11:08:55.294Z,27.76
2023-12-04T11:11:21.729Z,27.87
2023-12-04T11:13:48.136Z,27.86
2023-12-04T11:16:14.670Z,27.84
2023-12-04T11:18:41.277Z,27.87
2023-12-04T11:21:08.323Z,27.98
2023-12-04T11:23:34.946Z,28.10
2023-12-04T11:26:01.452Z,28.23
2023-12-04T11:28:27.950Z,28.38
2023-12-04T11:30:54.413Z,28.52
2023-12-04T11:33:21.007Z,28.66
2023-12-04T11:35:47.478Z,28.67
2023-12-04T11:38:13.899Z,28.62
2023-12-04T11:40:40.317Z,28.64
2023-12-04T11:43:06.775Z,28.71
2023-12-04T11:45:33.458Z,28.81
2023-12-04T11:47:59.974Z,28.94
2023-12-04T11:50:26.451Z,28.99
2023-12-04T11:52:52.913Z,28.93
2023-12-04T11:55:19.367Z,28.92
2023-12-04T11:57:45.970Z,28.95
2023-12-04T12:00:12.539Z,29.07
2023-12-04T12:03:14.662Z,29.18
2023-12-04T12:05:28.679Z,29.32
2023-12-04T12:07:55.162Z,29.32
2023-12-04T12:10:21.561Z,29.25
2023-12-04T12:12:48.057Z,29.25
2023-12-04T12:15:14.520Z,29.25
2023-12-04T12:17:41.001Z,28.78
2023-12-04T12:20:07.443Z,28.00
2023-12-04T12:22:33.873Z,27.14
2023-12-04T12:25:00.341Z,26.49
2023-12-04T12:27:26.815Z,26.27
2023-12-04T12:29:53.310Z,26.18
2023-12-04T12:32:19.737Z,25.67
2023-12-04T12:34:46.325Z,25.12
2023-12-04T12:37:12.807Z,25.04
2023-12-04T12:39:39.263Z,25.18
2023-12-04T12:42:05.819Z,24.86
2023-12-04T12:44:32.304Z,24.33
2023-12-04T12:46:58.779Z,24.20
2023-12-04T12:49:32.847Z,24.35
2023-12-04T12:52:03.257Z,24.17
2023-12-04T12:54:29.805Z,23.76
2023-12-04T12:56:56.319Z,23.52
2023-12-04T12:59:22.757Z,23.76
2023-12-04T13:01:49.300Z,23.77
2023-12-04T13:04:15.907Z,23.39
2023-12-04T13:06:42.474Z,23.07
2023-12-04T13:09:09.027Z,23.24
2023-12-04T13:11:35.532Z,23.42
2023-12-04T13:14:02.035Z,23.17
2023-12-04T13:16:28.479Z,22.72
2023-12-04T13:18:54.934Z,22.23
2023-12-04T13:21:21.730Z,22.37
2023-12-04T13:23:48.217Z,22.51
2023-12-04T13:26:14.683Z,22.23
2023-12-04T13:28:44.540Z,22.03
2023-12-04T13:31:11.347Z,22.25
2023-12-04T13:33:37.840Z,22.52
2023-12-04T13:36:04.300Z,22.26
2023-12-04T13:38:35.242Z,21.93
2023-12-04T13:41:04.249Z,22.00
2023-12-04T13:43:30.707Z,22.12
2023-12-04T13:45:57.184Z,21.19
2023-12-04T13:48:23.691Z,20.75
2023-12-04T13:50:50.297Z,20.96
2023-12-04T13:53:16.741Z,21.25
2023-12-04T13:55:43.172Z,21.24
2023-12-04T13:58:09.737Z,21.11
2023-12-04T14:00:36.176Z,21.29
2023-12-04T14:03:02.741Z,21.58
2023-12-04T14:05:29.583Z,21.52
2023-12-04T14:07:56.481Z,21.33
2023-12-04T14:10:24.011Z,21.50
2023-12-04T14:12:50.497Z,21.77
2023-12-04T14:15:16.957Z,21.72
2023-12-04T14:17:43.411Z,21.48
2023-12-04T14:20:09.900Z,21.57
2023-12-04T14:22:36.421Z,21.84
2023-12-04T14:25:02.954Z,22.01
2023-12-04T14:27:29.373Z,22.21
2023-12-04T14:29:56.536Z,22.52
2023-12-04T14:32:27.278Z,22.92
2023-12-04T14:34:55.897Z,23.29
2023-12-04T14:37:23.140Z,23.39
2023-12-04T14:39:49.588Z,23.41
2023-12-04T14:42:16.049Z,23.38
2023-12-04T14:44:42.471Z,23.31
2023-12-04T14:47:08.893Z,23.20
2023-12-04T14:49:35.394Z,23.01
2023-12-04T14:52:02.021Z,22.88
2023-12-04T14:54:28.516Z,22.74
2023-12-04T14:56:54.930Z,22.74
2023-12-04T14:59:21.359Z,22.60
2023-12-04T15:01:47.889Z,22.53
2023-12-04T15:04:14.437Z,22.44
2023-12-04T15:06:40.958Z,22.31
2023-12-04T15:09:07.457Z,22.19
2023-12-04T15:11:33.958Z,22.08
2023-12-04T15:14:00.459Z,21.97
2023-12-04T15:16:26.900Z,21.86
2023-12-04T15:18:53.373Z,21.73
2023-12-04T15:21:19.862Z,21.64
2023-12-04T15:23:46.326Z,21.52
2023-12-04T15:26:12.730Z,21.42
2023-12-04T15:28:39.161Z,21.30
2023-12-04T15:31:05.590Z,21.14
2023-12-04T15:33:32.112Z,21.08
2023-12-04T15:35:58.598Z,20.92
2023-12-04T15:38:25.065Z,20.79
2023-12-04T15:40:51.471Z,20.63
2023-12-04T15:43:17.953Z,20.61
2023-12-04T15:45:44.505Z,20.53
2023-12-04T15:48:11.088Z,20.42
2023-12-04T15:50:37.602Z,20.30
2023-12-04T15:53:04.038Z,20.20
2023-12-04T15:55:30.493Z,20.10
2023-12-04T15:57:56.951Z,19.99
2023-12-04T16:00:23.437Z,19.88
2023-12-04T16:02:49.886Z,19.78
2023-12-04T16:05:16.488Z,19.66
2023-12-04T16:07:43.023Z,19.55
2023-12-04T16:10:09.479Z,19.43
2023-12-04T16:12:35.959Z,19.35
2023-12-04T16:15:02.426Z,19.26
2023-12-04T16:17:28.861Z,19.16
2023-12-04T16:19:55.432Z,19.05
2023-12-04T16:22:21.934Z,18.94
2023-12-04T16:24:48.367Z,18.84
2023-12-04T16:27:14.881Z,18.73
2023-12-04T16:29:41.303Z,18.64
2023-12-04T16:32:07.758Z,18.55
2023-12-04T16:34:34.297Z,18.45
2023-12-04T16:37:00.732Z,18.31
2023-12-04T16:39:27.177Z,18.22
2023-12-04T16:41:53.635Z,18.12
2023-12-04T16:44:20.715Z,18.03
2023-12-04T16:46:47.165Z,17.93
2023-12-04T16:49:13.698Z,17.83
2023-12-04T16:51:40.248Z,17.76
2023-12-04T16:54:06.773Z,17.66
2023-12-04T16:56:33.235Z,17.58
2023-12-04T16:58:59.663Z,17.46
2023-12-04T17:01:26.102Z,17.38
2023-12-04T17:03:52.857Z,17.28
2023-12-04T17:06:19.400Z,17.20
2023-12-04T17:08:45.981Z,17.11
2023-12-04T17:11:12.437Z,17.02
2023-12-04T17:13:38.831Z,16.93
2023-12-04T17:16:05.302Z,16.84
2023-12-04T17:18:31.776Z,16.76
2023-12-04T17:20:59.809Z,16.68
2023-12-04T17:23:26.329Z,16.60
2023-12-04T17:25:52.753Z,16.37
2023-12-04T17:28:19.193Z,16.45
2023-12-04T17:30:45.669Z,16.36
2023-12-04T17:33:12.314Z,16.30
2023-12-04T17:35:38.790Z,16.21
2023-12-04T17:38:05.212Z,16.15
2023-12-04T17:40:32.503Z,16.08
2023-12-04T17:42:58.919Z,16.01
2023-12-04T17:45:25.497Z,15.93
2023-12-04T17:47:51.988Z,15.85
2023-12-04T17:50:18.436Z,15.79
2023-12-04T17:52:44.873Z,15.71
2023-12-04T17:55:11.300Z,15.65
2023-12-04T17:57:37.742Z,15.57
2023-12-04T18:00:04.267Z,15.42
2023-12-04T18:02:32.914Z,15.44
2023-12-04T18:04:59.526Z,15.39
2023-12-04T18:07:26.411Z,15.32
2023-12-04T18:09:52.937Z,15.25
2023-12-04T18:12:19.457Z,15.19
2023-12-04T18:14:45.931Z,15.14
2023-12-04T18:17:12.367Z,15.08
2023-12-04T18:19:38.822Z,15.00
2023-12-04T18:22:05.333Z,14.95
2023-12-04T18:24:31.789Z,14.90
2023-12-04T18:26:58.206Z,14.85
2023-12-04T18:29:24.676Z,14.77
2023-12-04T18:31:51.161Z,14.71
2023-12-04T18:34:19.284Z,14.65
2023-12-04T18:36:46.401Z,14.57
2023-12-04T18:39:12.920Z,14.52
2023-12-04T18:41:39.375Z,14.44
2023-12-04T18:44:05.800Z,14.38
2023-12-04T18:46:32.215Z,14.32
2023-12-04T18:48:58.748Z,14.25
2023-12-04T18:51:25.276Z,14.19
2023-12-04T18:53:51.741Z,14.11
2023-12-04T18:56:18.132Z,14.07
2023-12-04T18:58:44.597Z,14.00
2023-12-04T19:01:11.004Z,13.95
2023-12-04T19:03:37.632Z,13.87
2023-12-04T19:06:04.278Z,13.82
2023-12-04T19:08:30.797Z,13.76
2023-12-04T19:10:57.231Z,13.70
2023-12-04T19:13:23.687Z,13.64
2023-12-04T19:15:50.231Z,13.57
2023-12-04T19:18:16.863Z,13.52
2023-12-04T19:20:43.433Z,13.46
2023-12-04T19:23:09.878Z,13.42
2023-12-04T19:25:48.434Z,13.36
2023-12-04T19:28:16.935Z,13.30
2023-12-04T19:30:43.478Z,13.25
2023-12-04T19:33:15.303Z,13.20
2023-12-04T19:35:45.078Z,13.14
2023-12-04T19:38:11.505Z,13.10
2023-12-04T19:40:37.948Z,13.04
2023-12-04T19:43:04.401Z,13.01
2023-12-04T19:45:30.854Z,12.97
2023-12-04T19:47:57.347Z,12.92
2023-12-04T19:50:23.840Z,12.89
2023-12-04T19:52:50.262Z,12.85
2023-12-04T19:55:16.693Z,12.80
2023-12-04T19:57:43.250Z,12.77
2023-12-04T20:00:09.683Z,12.72
2023-12-04T20:02:38.945Z,12.51
2023-12-04T20:05:05.594Z,12.64
2023-12-04T20:07:32.759Z,12.60
2023-12-04T20:09:59.151Z,12.56
2023-12-04T20:12:25.625Z,12.51
2023-12-04T20:14:52.070Z,12.47
2023-12-04T20:17:18.476Z,12.42
2023-12-04T20:19:44.933Z,12.38
2023-12-04T20:22:11.444Z,12.34
2023-12-04T20:24:37.935Z,12.29
2023-12-04T20:27:04.467Z,12.24
2023-12-04T20:29:30.913Z,12.20
2023-12-04T20:31:57.301Z,12.15
2023-12-04T20:34:23.817Z,12.10
2023-12-04T20:36:50.336Z,11.82
2023-12-04T20:39:16.779Z,11.90
2023-12-04T20:41:43.265Z,11.86
2023-12-04T20:44:09.694Z,11.77
2023-12-04T20:46:36.124Z,11.72
2023-12-04T20:49:02.616Z,11.68
2023-12-04T20:51:29.118Z,11.75
2023-12-04T20:53:55.564Z,11.67
2023-12-04T20:56:22.041Z,11.55
2023-12-04T20:58:48.453Z,11.49
2023-12-04T21:01:14.879Z,11.46
2023-12-04T21:03:41.441Z,11.51
2023-12-04T21:06:08.011Z,11.51
2023-12-04T21:08:34.462Z,11.49
2023-12-04T21:11:00.897Z,11.46
2023-12-04T21:13:27.411Z,11.43
2023-12-04T21:15:53.850Z,11.41
2023-12-04T21:18:20.427Z,11.37
2023-12-04T21:20:47.012Z,11.35
2023-12-04T21:23:13.440Z,11.32
2023-12-04T21:25:39.888Z,11.29
2023-12-04T21:28:06.340Z,11.11
2023-12-04T21:30:32.771Z,11.23
2023-12-04T21:32:59.250Z,11.20
2023-12-04T21:35:25.716Z,11.16
2023-12-04T21:37:52.155Z,11.06
2023-12-04T21:40:18.593Z,11.03
2023-12-04T21:42:45.050Z,10.95
2023-12-04T21:45:11.525Z,10.86
2023-12-04T21:47:38.092Z,10.95
2023-12-04T21:50:04.518Z,10.96
2023-12-04T21:52:30.965Z,10.96
2023-12-04T21:54:57.390Z,10.93
2023-12-04T21:57:24.162Z,10.89
2023-12-04T21:59:50.593Z,10.85
2023-12-04T22:02:17.025Z,10.75
2023-12-04T22:04:43.722Z,10.70
2023-12-04T22:07:10.267Z,10.67
2023-12-04T22:09:36.724Z,10.70
2023-12-04T22:12:03.198Z,10.68
2023-12-04T22:14:29.591Z,10.65
2023-12-04T22:16:56.021Z,10.61
2023-12-04T22:19:23.352Z,10.59
2023-12-04T22:21:49.878Z,10.54
2023-12-04T22:24:16.446Z,10.47
2023-12-04T22:26:42.896Z,10.44
2023-12-04T22:29:09.297Z,10.41
2023-12-04T22:31:35.756Z,10.37
2023-12-04T22:34:02.192Z,10.34
2023-12-04T22:36:28.619Z,10.12
2023-12-04T22:38:55.580Z,10.25
2023-12-04T22:41:21.975Z,10.22
2023-12-04T22:43:48.391Z,10.18
2023-12-04T22:46:14.868Z,10.13
2023-12-04T22:48:41.411Z,9.99
2023-12-04T22:51:07.972Z,9.93
2023-12-04T22:53:34.417Z,9.82
2023-12-04T22:56:00.850Z,9.96
2023-12-04T22:58:27.314Z,9.94
2023-12-04T23:00:53.796Z,9.93
2023-12-04T23:03:20.447Z,9.88
2023-12-04T23:05:47.015Z,9.86
2023-12-04T23:08:15.172Z,9.74
2023-12-04T23:10:42.326Z,9.77
2023-12-04T23:13:08.759Z,9.63
2023-12-04T23:15:35.268Z,9.57
2023-12-04T23:18:01.761Z,9.56
2023-12-04T23:20:28.237Z,9.51
2023-12-04T23:22:54.689Z,9.48
2023-12-04T23:25:21.250Z,9.53
2023-12-04T23:27:47.725Z,9.38
2023-12-04T23:30:14.185Z,9.51
2023-12-04T23:32:40.656Z,9.49
2023-12-04T23:35:07.106Z,9.43
2023-12-04T23:37:33.533Z,9.39
2023-12-04T23:39:59.962Z,9.36
2023-12-04T23:42:26.539Z,9.31
2023-12-04T23:44:52.997Z,9.28
2023-12-04T23:47:19.441Z,9.21
2023-12-04T23:49:45.927Z,9.17
2023-12-04T23:52:12.384Z,9.13
2023-12-04T23:54:38.855Z,8.98
2023-12-04T23:57:05.247Z,8.90
2023-12-04T23:59:31.712Z,8.85
